Time;durP1;ratioP1;P1;durP2;ratioP2;P2;SDS_P1;SDS_P2;PMS_P1;PMS_P2;Temp;Humidity;BMP_temperature;BMP_pressure;BME280_temperature;BME280_humidity;BME280_pressure;Samples;Min_cycle;Max_cycle;Signal;HPM_P1;HPM_P2
2022/01/16 00:00:25;;;;;;;0.15;0.15;;;;;;;6.31;67.76;102424.19;4992195;28;20440;-87
2022/01/16 00:05:49;;;;;;;7.68;2.17;;;;;;;6.27;67.80;102424.97;5075857;28;20416;-84
2022/01/16 00:08:15;;;;;;;3.13;1.33;;;;;;;6.29;67.63;102425.00;5048413;28;20083;-87
2022/01/16 00:10:41;;;;;;;0.20;0.20;;;;;;;6.28;67.58;102429.41;5049765;28;20029;-87
2022/01/16 00:13:07;;;;;;;5.72;1.50;;;;;;;6.26;67.89;102427.59;5033596;28;20025;-84
2022/01/16 00:15:34;;;;;;;0.20;0.20;;;;;;;6.26;67.79;102443.38;5028439;28;20120;-83
2022/01/16 00:18:09;;;;;;;1.10;1.10;;;;;;;6.25;67.68;102433.69;5028819;28;20045;-87
2022/01/16 00:20:36;;;;;;;1.15;1.05;;;;;;;6.27;67.76;102424.09;5029259;28;20024;-87
2022/01/16 00:23:05;;;;;;;1.95;1.17;;;;;;;6.27;67.77;102416.22;5029109;28;20080;-84
2022/01/16 00:25:31;;;;;;;0.93;0.65;;;;;;;6.20;67.95;102414.28;5036946;28;20068;-86
2022/01/16 00:27:58;;;;;;;0.55;0.55;;;;;;;6.24;67.84;102416.13;5033312;28;20396;-86
2022/01/16 00:30:24;;;;;;;0.40;0.40;;;;;;;6.20;68.01;102419.53;5028107;28;20095;-87
2022/01/16 00:32:50;;;;;;;2.17;1.98;;;;;;;6.24;68.02;102416.13;5035178;28;20025;-85
2022/01/16 00:35:16;;;;;;;0.60;0.60;;;;;;;6.24;67.90;102418.75;5031287;28;20408;-86
2022/01/16 00:37:42;;;;;;;0.10;0.10;;;;;;;6.23;68.06;102432.75;5034661;28;20125;-86
2022/01/16 00:40:10;;;;;;;2.58;2.38;;;;;;;6.24;68.25;102429.28;5037295;28;20120;-87
2022/01/16 00:42:37;;;;;;;0.28;0.28;;;;;;;6.28;68.05;102431.13;5035021;28;20068;-87
2022/01/16 00:45:04;;;;;;;0.60;0.60;;;;;;;6.36;68.09;102428.69;5036224;28;20043;-86
2022/01/16 00:47:30;;;;;;;0.95;0.95;;;;;;;6.36;68.16;102432.19;5029520;28;20503;-86
2022/01/16 00:49:57;;;;;;;0.20;0.20;;;;;;;6.41;67.98;102435.81;5039663;28;20028;-86
2022/01/16 00:52:23;;;;;;;0.55;0.55;;;;;;;6.41;68.14;102421.78;5029438;28;20477;-85
2022/01/16 00:54:49;;;;;;;0.75;0.75;;;;;;;6.46;67.96;102402.59;5030639;28;20079;-85
2022/01/16 00:57:15;;;;;;;2.83;2.72;;;;;;;6.41;68.07;102414.75;5039826;28;20041;-85
2022/01/16 00:59:41;;;;;;;7.47;2.75;;;;;;;6.50;68.09;102402.66;5038420;28;20056;-86
2022/01/16 01:02:07;;;;;;;0.47;0.47;;;;;;;6.50;67.95;102393.00;5035509;28;20028;-86
2022/01/16 01:04:34;;;;;;;0.57;0.57;;;;;;;6.55;68.07;102369.41;5037030;28;20041;-86
2022/01/16 01:07:00;;;;;;;0.10;0.10;;;;;;;6.54;68.06;102383.44;5039955;28;20068;-85
2022/01/16 01:09:26;;;;;;;0.88;0.88;;;;;;;6.53;68.64;102386.91;5034613;28;20500;-86
2022/01/16 01:11:52;;;;;;;1.10;1.10;;;;;;;6.57;68.36;102372.97;5025552;28;20448;-86
2022/01/16 01:14:25;;;;;;;1.10;1.10;;;;;;;6.57;68.51;102388.78;5029415;28;20064;-86
2022/01/16 01:16:56;;;;;;;0.75;0.68;;;;;;;6.60;68.54;102383.56;5023388;28;20431;-87
2022/01/16 01:19:31;;;;;;;6.30;1.48;;;;;;;6.59;68.82;102398.50;5026239;28;20033;-86
2022/01/16 01:21:58;;;;;;;0.10;0.10;;;;;;;6.60;68.78;102383.56;5015124;28;20041;-85
2022/01/16 01:24:25;;;;;;;0.75;0.60;;;;;;;6.60;69.06;102384.47;5017039;28;20100;-86
2022/01/16 01:27:01;;;;;;;2.58;2.38;;;;;;;6.57;69.06;102386.16;5023115;28;20038;-86
2022/01/16 01:29:29;;;;;;;0.52;0.52;;;;;;;6.57;69.32;102383.50;5024736;28;20033;-86
2022/01/16 01:31:56;;;;;;;2.10;0.85;;;;;;;6.51;69.46;102396.56;5024847;28;20026;-87
2022/01/16 01:34:22;;;;;;;0.43;0.43;;;;;;;6.57;69.14;102396.69;5029207;28;20064;-86
2022/01/16 01:36:49;;;;;;;0.22;0.22;;;;;;;6.60;69.51;102399.38;5012050;28;20038;-85
2022/01/16 01:39:19;;;;;;;0.22;0.22;;;;;;;6.61;68.88;102380.09;5023383;28;20029;-87
2022/01/16 01:41:49;;;;;;;0.68;0.68;;;;;;;6.56;69.43;102340.47;5021604;28;20032;-87
2022/01/16 01:52:35;;;;;;;0.30;0.30;;;;;;;6.56;69.54;102324.66;5025124;28;20103;-86
2022/01/16 01:55:01;;;;;;;0.20;0.20;;;;;;;6.57;69.42;102347.53;5017420;28;20378;-86
2022/01/16 01:57:27;;;;;;;0.10;0.10;;;;;;;6.59;69.59;102358.06;5022117;28;20037;-86
2022/01/16 01:59:54;;;;;;;0.10;0.10;;;;;;;6.58;69.10;102373.00;5019027;28;20459;-86
2022/01/16 02:02:20;;;;;;;0.10;0.10;;;;;;;6.60;69.28;102384.47;5017242;28;20037;-85
2022/01/16 02:04:46;;;;;;;0.80;0.80;;;;;;;6.63;69.38;102383.66;5013650;28;20029;-87
2022/01/16 02:07:13;;;;;;;2.58;2.38;;;;;;;6.53;70.00;102397.44;5023957;28;20026;-86
2022/01/16 02:09:39;;;;;;;1.48;1.48;;;;;;;6.53;69.27;102395.72;5024661;28;20029;-86
2022/01/16 02:12:06;;;;;;;15.80;1.95;;;;;;;6.57;69.31;102417.75;5012696;28;20061;-86
2022/01/16 02:14:48;;;;;;;0.65;0.65;;;;;;;6.58;69.40;102406.34;5019025;28;20452;-86
2022/01/16 02:28:48;;;;;;;1.25;1.20;;;;;;;6.62;69.81;102400.31;5011192;28;20038;-85
2022/01/16 02:31:20;;;;;;;0.98;0.98;;;;;;;6.60;69.50;102402.00;5022640;28;20049;-86
2022/01/16 02:36:35;;;;;;;4.38;3.10;;;;;;;6.58;69.79;102401.97;5080703;27;20893;-85
2022/01/16 02:39:07;;;;;;;0.20;0.20;;;;;;;6.68;69.44;102391.63;5070354;28;20051;-86
2022/01/16 02:41:34;;;;;;;1.27;1.27;;;;;;;6.68;69.52;102396.88;5064189;28;20072;-87
2022/01/16 02:44:10;;;;;;;0.57;0.57;;;;;;;6.69;69.67;102396.03;5058728;28;20728;-87
2022/01/16 02:46:37;;;;;;;0.38;0.38;;;;;;;6.71;69.51;102387.31;5057205;28;20119;-86
2022/01/16 02:49:14;;;;;;;0.88;0.88;;;;;;;6.72;69.88;102389.09;5055675;28;20029;-86
2022/01/16 02:51:41;;;;;;;0.10;0.10;;;;;;;6.72;69.68;102391.72;5058596;28;20048;-85
2022/01/16 02:54:07;;;;;;;4.13;1.65;;;;;;;6.67;69.84;102380.22;5058923;28;20079;-86
2022/01/16 02:56:35;;;;;;;1.73;1.65;;;;;;;6.71;69.69;102379.41;5057255;28;20049;-86
2022/01/16 02:59:01;;;;;;;2.60;1.33;;;;;;;6.77;69.82;102368.13;5063361;28;20483;-87
2022/01/16 03:01:27;;;;;;;0.73;0.73;;;;;;;6.76;69.71;102361.94;5054372;28;20025;-86
2022/01/16 03:03:53;;;;;;;12.50;2.28;;;;;;;6.66;69.99;102365.25;5060028;28;20456;-85
2022/01/16 03:06:19;;;;;;;3.83;3.55;;;;;;;6.68;69.70;102358.28;5050979;28;20099;-84
2022/01/16 03:08:46;;;;;;;0.65;0.65;;;;;;;6.64;69.87;102349.44;5060080;28;20016;-85
2022/01/16 03:11:18;;;;;;;0.10;0.10;;;;;;;6.69;69.80;102348.63;5059810;28;20022;-85
2022/01/16 03:13:49;;;;;;;1.33;1.27;;;;;;;6.70;69.65;102347.78;5066854;28;20051;-86
2022/01/16 03:16:17;;;;;;;2.08;1.98;;;;;;;6.68;69.38;102341.56;5057833;28;20085;-85
2022/01/16 03:24:16;;;;;;;0.60;0.60;;;;;;;6.67;69.06;102327.53;5058608;28;20037;-86
2022/01/16 03:26:42;;;;;;;1.13;1.02;;;;;;;6.54;69.26;102336.03;5057857;28;20109;-86
2022/01/16 03:29:09;;;;;;;2.33;2.13;;;;;;;6.52;69.47;102332.47;5053430;28;20466;-86
2022/01/16 03:31:35;;;;;;;0.28;0.28;;;;;;;6.51;69.49;102331.59;5053616;28;20040;-85
2022/01/16 03:34:01;;;;;;;1.23;1.17;;;;;;;6.53;69.24;102335.16;5052466;28;20101;-85
2022/01/16 03:36:28;;;;;;;0.25;0.25;;;;;;;6.50;69.21;102328.94;5059543;28;20029;-86
2022/01/16 03:38:54;;;;;;;0.20;0.20;;;;;;;6.46;69.26;102326.22;5056184;28;20063;-87
2022/01/16 03:41:20;;;;;;;1.05;1.05;;;;;;;6.40;69.17;102320.81;5059359;28;20029;-86
2022/01/16 03:43:46;;;;;;;0.28;0.28;;;;;;;6.33;69.37;102326.84;5060078;28;20502;-86
2022/01/16 03:46:13;;;;;;;0.20;0.20;;;;;;;6.35;69.25;102322.47;5051947;28;20026;-84
2022/01/16 03:48:39;;;;;;;0.55;0.55;;;;;;;6.35;69.21;102319.84;5044122;28;20045;-86
2022/01/16 03:51:05;;;;;;;0.63;0.63;;;;;;;6.28;69.26;102328.47;5036815;28;20389;-85
2022/01/16 03:53:31;;;;;;;1.00;1.00;;;;;;;6.25;69.03;102323.16;5041680;28;20048;-86
2022/01/16 03:55:58;;;;;;;0.95;0.95;;;;;;;6.23;69.11;102331.00;5044589;28;20038;-83
2022/01/16 03:58:24;;;;;;;0.70;0.70;;;;;;;6.20;69.15;102330.06;5040055;28;20042;-85
2022/01/16 04:00:50;;;;;;;0.20;0.20;;;;;;;6.20;68.98;102330.94;5041921;28;20036;-85
2022/01/16 04:03:16;;;;;;;0.10;0.10;;;;;;;6.21;69.15;102334.47;5040345;28;20479;-85
2022/01/16 04:05:42;;;;;;;1.13;1.08;;;;;;;6.19;69.28;102329.16;5039443;28;20099;-87
2022/01/16 04:08:08;;;;;;;0.65;0.65;;;;;;;6.18;69.28;102326.50;5050912;28;20033;-86
2022/01/16 04:10:35;;;;;;;0.20;0.20;;;;;;;6.19;69.36;102323.88;5037089;28;20499;-86
2022/01/16 04:13:03;;;;;;;1.13;1.05;;;;;;;6.16;69.33;102318.56;5045785;28;20061;-86
2022/01/16 04:15:32;;;;;;;0.57;0.57;;;;;;;6.10;69.07;102319.31;5048321;28;20036;-86
2022/01/16 04:18:00;;;;;;;0.20;0.20;;;;;;;6.13;69.32;102319.38;5041407;28;20037;-86
2022/01/16 04:20:30;;;;;;;2.50;1.60;;;;;;;6.13;69.16;102319.38;5039083;28;20037;-85
2022/01/16 04:23:06;;;;;;;0.13;0.13;;;;;;;6.13;69.12;102315.84;5048591;28;20109;-85
2022/01/16 04:25:40;;;;;;;2.20;2.10;;;;;;;6.09;69.28;102317.56;5046507;28;20059;-85
2022/01/16 04:28:15;;;;;;;0.35;0.35;;;;;;;6.08;69.32;102310.50;5041744;28;20365;-84
2022/01/16 04:30:41;;;;;;;0.70;0.70;;;;;;;6.04;69.18;102313.03;5040984;28;20032;-85
2022/01/16 04:33:07;;;;;;;1.35;1.33;;;;;;;6.02;69.51;102326.16;5043010;28;20427;-85
2022/01/16 04:35:34;;;;;;;0.32;0.32;;;;;;;6.04;69.34;102323.56;5043119;28;20056;-86
2022/01/16 04:38:00;;;;;;;0.15;0.15;;;;;;;6.07;69.41;102318.34;5050448;28;20033;-86
2022/01/16 04:40:26;;;;;;;0.70;0.70;;;;;;;6.03;69.22;102306.91;5054207;28;20112;-86
2022/01/16 04:45:38;;;;;;;1.27;1.27;;;;;;;6.09;69.27;102312.28;5054782;28;20037;-86
2022/01/16 04:48:05;;;;;;;1.00;1.00;;;;;;;6.10;69.31;102306.16;5055155;28;20025;-86
2022/01/16 04:50:31;;;;;;;3.72;1.48;;;;;;;6.10;69.11;102303.50;5048758;28;20044;-86
2022/01/16 04:52:57;;;;;;;1.00;1.00;;;;;;;6.18;68.86;102297.53;5037249;28;20037;-85
2022/01/16 04:55:24;;;;;;;0.40;0.40;;;;;;;6.14;69.16;102302.75;5047723;28;20062;-86
2022/01/16 04:57:51;;;;;;;0.57;0.57;;;;;;;6.09;69.08;102307.03;5054147;28;20029;-84
2022/01/16 05:00:17;;;;;;;0.65;0.65;;;;;;;6.14;69.10;102304.47;5054749;28;20380;-85
2022/01/16 05:02:44;;;;;;;0.47;0.47;;;;;;;6.19;68.87;102300.19;5047382;28;20040;-86
2022/01/16 05:05:11;;;;;;;2.03;1.85;;;;;;;6.20;69.08;102309.88;5034785;28;20076;-85
2022/01/16 05:07:37;;;;;;;1.30;0.82;;;;;;;6.23;69.24;102314.31;5034852;28;20044;-85
2022/01/16 05:10:04;;;;;;;0.30;0.30;;;;;;;6.28;69.09;102302.13;5034483;28;20033;-85
2022/01/16 05:12:34;;;;;;;0.50;0.50;;;;;;;6.25;69.11;102307.34;5039608;28;20033;-86
2022/01/16 05:17:57;;;;;;;0.50;0.50;;;;;;;6.28;68.99;102307.41;5049586;28;20128;-87
2022/01/16 05:20:24;;;;;;;0.40;0.40;;;;;;;6.28;69.16;102316.22;5043529;28;20025;-85
2022/01/16 05:23:02;;;;;;;0.93;0.93;;;;;;;6.34;69.34;102307.53;5054182;28;20025;-86
2022/01/16 05:25:28;;;;;;;1.42;1.33;;;;;;;6.29;69.49;102309.19;5054342;28;20033;-85
2022/01/16 05:27:54;;;;;;;1.88;1.80;;;;;;;6.32;69.32;102299.59;5047660;28;20033;-86
2022/01/16 05:30:20;;;;;;;1.00;0.73;;;;;;;6.39;68.96;102299.75;5034115;28;20042;-86
2022/01/16 05:32:46;;;;;;;0.90;0.77;;;;;;;6.35;69.25;102304.03;5034252;28;20093;-86
2022/01/16 05:35:12;;;;;;;1.75;1.65;;;;;;;6.37;69.08;102297.09;5044477;28;20447;-86
2022/01/16 05:37:38;;;;;;;0.10;0.10;;;;;;;6.39;69.04;102300.66;5050182;28;20383;-86
2022/01/16 05:40:06;;;;;;;1.33;1.23;;;;;;;6.44;68.98;102298.09;5035847;28;20036;-84
2022/01/16 05:42:32;;;;;;;0.40;0.40;;;;;;;6.41;69.26;102314.72;5033789;28;20034;-87
2022/01/16 05:44:59;;;;;;;0.45;0.45;;;;;;;6.42;69.23;102311.22;5033989;28;20026;-86
2022/01/16 05:47:25;;;;;;;0.45;0.45;;;;;;;6.39;69.41;102308.53;5035683;28;20052;-86
2022/01/16 05:49:51;;;;;;;0.30;0.30;;;;;;;6.41;69.25;102304.19;5044828;28;20472;-85
2022/01/16 05:52:17;;;;;;;0.20;0.20;;;;;;;6.49;69.22;102314.84;5050706;28;20099;-87
2022/01/16 05:54:43;;;;;;;0.52;0.52;;;;;;;6.47;69.19;102317.47;5040722;28;20488;-87
2022/01/16 05:57:10;;;;;;;0.20;0.20;;;;;;;6.56;69.13;102314.13;5044894;28;20424;-85
2022/01/16 05:59:36;;;;;;;0.32;0.32;;;;;;;6.57;69.14;102310.66;5053153;28;20036;-86
2022/01/16 06:02:02;;;;;;;0.35;0.35;;;;;;;6.61;69.08;102306.34;5051938;28;20029;-86
2022/01/16 06:04:28;;;;;;;0.43;0.43;;;;;;;6.64;69.25;102306.38;5050693;28;20033;-87
2022/01/16 06:06:55;;;;;;;0.15;0.15;;;;;;;6.71;68.94;102302.16;5053414;28;20029;-85
2022/01/16 06:09:21;;;;;;;0.30;0.30;;;;;;;6.69;68.96;102294.22;5053616;28;20138;-85
2022/01/16 06:11:47;;;;;;;0.13;0.13;;;;;;;6.70;69.12;102295.97;5053398;28;20167;-87
2022/01/16 06:14:13;;;;;;;0.65;0.65;;;;;;;6.76;68.85;102298.72;5049441;28;20022;-86
2022/01/16 06:16:39;;;;;;;0.20;0.20;;;;;;;6.72;69.14;102299.53;5039887;28;20384;-86
2022/01/16 06:19:06;;;;;;;0.30;0.30;;;;;;;6.77;68.71;102302.25;5046890;28;20055;-85
2022/01/16 06:21:32;;;;;;;0.75;0.75;;;;;;;6.81;68.87;102312.00;5035257;28;20045;-85
2022/01/16 06:23:58;;;;;;;0.20;0.20;;;;;;;6.87;68.70;102306.84;5034728;28;20036;-86
2022/01/16 06:26:24;;;;;;;0.20;0.20;;;;;;;6.88;68.90;102310.34;5047976;28;20025;-86
2022/01/16 06:28:51;;;;;;;0.30;0.30;;;;;;;6.85;68.70;102311.19;5033751;28;20036;-86
2022/01/16 06:31:17;;;;;;;0.50;0.50;;;;;;;6.89;68.79;102313.03;5033789;28;20060;-87
2022/01/16 06:33:43;;;;;;;4.13;3.40;;;;;;;6.97;68.87;102305.28;5045434;28;20491;-86
2022/01/16 06:36:09;;;;;;;0.10;0.10;;;;;;;7.02;68.54;102319.41;5035130;28;20091;-85
2022/01/16 06:38:35;;;;;;;0.65;0.65;;;;;;;7.10;68.66;102322.19;5053316;28;20029;-86
2022/01/16 06:41:01;;;;;;;0.10;0.10;;;;;;;7.08;68.45;102324.81;5053203;28;20035;-85
2022/01/16 06:43:28;;;;;;;1.50;1.45;;;;;;;7.15;68.59;102331.06;5053824;28;20033;-86
2022/01/16 06:45:54;;;;;;;0.38;0.38;;;;;;;7.18;68.61;102330.22;5036050;28;20057;-86
2022/01/16 06:48:20;;;;;;;4.65;2.28;;;;;;;7.24;68.70;102335.59;5033959;28;20171;-86
2022/01/16 06:50:46;;;;;;;0.10;0.10;;;;;;;7.27;68.61;102336.56;5037618;28;20034;-85
2022/01/16 06:53:13;;;;;;;0.30;0.30;;;;;;;7.32;68.35;102344.56;5040876;28;20021;-85
2022/01/16 06:55:39;;;;;;;0.10;0.10;;;;;;;7.36;68.08;102349.00;5051874;28;20044;-86
2022/01/16 06:58:06;;;;;;;0.63;0.63;;;;;;;7.44;67.85;102357.94;5052659;28;20037;-87
2022/01/16 07:00:32;;;;;;;0.20;0.20;;;;;;;7.45;68.04;102357.09;5052944;28;20024;-86
2022/01/16 07:02:58;;;;;;;0.10;0.10;;;;;;;7.51;68.04;102361.56;5048508;28;20037;-86
2022/01/16 07:05:24;;;;;;;0.30;0.30;;;;;;;7.53;67.27;102361.63;5039343;28;20052;-86
2022/01/16 07:07:51;;;;;;;0.32;0.32;;;;;;;7.56;67.25;102366.94;5048646;28;20464;-86
2022/01/16 07:10:18;;;;;;;0.10;0.10;;;;;;;7.60;67.13;102371.38;5052858;28;20083;-85
2022/01/16 07:12:44;;;;;;;0.10;0.10;;;;;;;7.66;67.43;102374.13;5052804;28;20116;-85
2022/01/16 07:15:11;;;;;;;0.20;0.20;;;;;;;7.67;67.12;102378.56;5042823;28;20443;-87
2022/01/16 07:17:37;;;;;;;0.20;0.20;;;;;;;7.67;66.36;102373.28;5039021;28;20388;-88
2022/01/16 07:20:04;;;;;;;0.17;0.17;;;;;;;7.75;66.44;102370.75;5032867;28;20030;-87
2022/01/16 07:22:30;;;;;;;0.25;0.22;;;;;;;7.85;66.67;102383.25;5035052;28;20037;-86
2022/01/16 07:24:56;;;;;;;0.35;0.35;;;;;;;7.89;65.93;102398.28;5043692;28;20542;-87
2022/01/16 07:27:22;;;;;;;0.57;0.57;;;;;;;8.01;66.19;102394.94;5046328;28;20137;-87
2022/01/16 07:29:49;;;;;;;0.15;0.15;;;;;;;8.09;65.08;102400.34;5036840;28;20385;-87
2022/01/16 07:32:16;;;;;;;0.10;0.10;;;;;;;8.09;63.44;102401.22;5037300;28;20095;-87
2022/01/16 07:34:42;;;;;;;0.10;0.10;;;;;;;8.23;64.11;102388.22;5056460;28;20062;-84
2022/01/16 07:37:08;;;;;;;0.10;0.10;;;;;;;8.31;64.02;102396.28;5056234;28;20037;-85
2022/01/16 07:39:37;;;;;;;0.40;0.40;;;;;;;8.35;63.46;102406.00;5056483;28;20036;-86
2022/01/16 07:42:04;;;;;;;0.40;0.40;;;;;;;8.48;63.87;102415.03;5056508;28;20036;-87
2022/01/16 07:44:30;;;;;;;0.10;0.10;;;;;;;8.54;63.58;102408.94;5038632;28;20112;-87
2022/01/16 07:46:56;;;;;;;0.10;0.10;;;;;;;8.58;62.94;102398.44;5041900;28;20096;-85
2022/01/16 07:49:22;;;;;;;0.10;0.10;;;;;;;8.66;61.99;102411.75;5036032;28;20037;-85
2022/01/16 07:51:48;;;;;;;0.45;0.45;;;;;;;8.71;62.61;102417.97;5036476;28;20021;-85
2022/01/16 07:54:15;;;;;;;0.10;0.10;;;;;;;8.80;64.14;102418.94;5036558;28;20037;-85
2022/01/16 07:56:41;;;;;;;1.40;1.40;;;;;;;8.85;63.27;102420.78;5036399;28;20122;-87
2022/01/16 07:59:07;;;;;;;0.25;0.25;;;;;;;8.88;62.42;102433.16;5039299;28;20049;-86
2022/01/16 08:01:33;;;;;;;1.00;0.65;;;;;;;8.90;62.77;102428.78;5049991;28;20035;-87
2022/01/16 08:03:59;;;;;;;0.22;0.22;;;;;;;8.92;62.05;102432.31;5056201;28;20033;-89
2022/01/16 08:06:25;;;;;;;0.10;0.10;;;;;;;8.97;63.50;102443.88;5046212;28;20041;-88
2022/01/16 08:08:52;;;;;;;0.10;0.10;;;;;;;9.01;63.16;102434.19;5045735;28;20025;-88
2022/01/16 08:11:18;;;;;;;2.22;0.85;;;;;;;9.05;62.57;102431.59;5035868;28;20034;-86
2022/01/16 08:13:44;;;;;;;0.40;0.40;;;;;;;9.11;63.31;102424.63;5036077;28;20033;-88
2022/01/16 08:16:10;;;;;;;0.20;0.20;;;;;;;9.12;62.63;102426.38;5035217;28;20038;-87
2022/01/16 08:18:36;;;;;;;0.13;0.13;;;;;;;9.14;62.11;102427.31;5035780;28;20130;-88
2022/01/16 08:21:02;;;;;;;0.10;0.10;;;;;;;9.17;63.36;102425.59;5050073;28;20119;-84
2022/01/16 08:23:29;;;;;;;0.38;0.38;;;;;;;9.16;62.27;102422.91;5037101;28;20038;-88
2022/01/16 08:25:55;;;;;;;0.10;0.10;;;;;;;9.23;63.43;102415.06;5050502;28;20021;-88
2022/01/16 08:28:21;;;;;;;0.30;0.30;;;;;;;9.20;62.77;102422.09;5051495;28;20043;-87
2022/01/16 08:30:47;;;;;;;0.38;0.38;;;;;;;9.21;62.79;102418.59;5045651;28;20029;-86
2022/01/16 08:33:14;;;;;;;0.20;0.20;;;;;;;9.14;62.66;102404.38;5052022;28;20083;-87
2022/01/16 08:35:41;;;;;;;0.20;0.20;;;;;;;9.25;62.75;102407.16;5053334;28;20375;-86
2022/01/16 08:38:07;;;;;;;1.27;0.50;;;;;;;9.32;63.19;102408.09;5046943;28;20140;-88
2022/01/16 08:40:33;;;;;;;0.10;0.10;;;;;;;9.28;62.78;102415.09;5034501;28;20029;-88
2022/01/16 08:43:07;;;;;;;0.10;0.10;;;;;;;9.14;63.00;102409.66;5034699;28;20041;-87
2022/01/16 08:45:33;;;;;;;0.20;0.20;;;;;;;9.16;63.10;102428.19;5038728;28;20030;-89
2022/01/16 08:47:59;;;;;;;0.10;0.10;;;;;;;9.09;63.28;102434.31;5036132;28;20446;-83
2022/01/16 08:50:25;;;;;;;0.30;0.30;;;;;;;9.03;63.51;102433.38;5036261;28;20033;-86
2022/01/16 08:52:51;;;;;;;0.30;0.30;;;;;;;8.96;63.80;102436.81;5036381;28;20030;-89
2022/01/16 08:55:18;;;;;;;0.10;0.10;;;;;;;8.94;64.41;102441.16;5034589;28;20045;-84
2022/01/16 08:57:44;;;;;;;0.10;0.10;;;;;;;8.82;64.46;102454.22;5034302;28;20034;-87
2022/01/16 09:00:11;;;;;;;0.30;0.30;;;;;;;8.82;64.87;102459.50;5035213;28;20045;-86
2022/01/16 09:02:37;;;;;;;0.20;0.20;;;;;;;8.74;65.43;102465.56;5038965;28;20024;-84
2022/01/16 09:05:05;;;;;;;0.85;0.85;;;;;;;8.80;65.09;102466.53;5038944;28;20052;-86
2022/01/16 09:07:32;;;;;;;0.60;0.55;;;;;;;8.78;64.90;102469.16;5042936;28;20032;-88
2022/01/16 09:10:00;;;;;;;0.95;0.95;;;;;;;8.79;64.95;102470.06;5040324;28;20021;-87
2022/01/16 09:12:27;;;;;;;0.20;0.20;;;;;;;8.71;65.30;102462.91;5050853;28;20032;-88
2022/01/16 09:14:53;;;;;;;1.65;1.27;;;;;;;8.65;65.96;102465.47;5039631;28;20026;-87
2022/01/16 09:17:22;;;;;;;0.70;0.70;;;;;;;8.62;65.78;102462.75;5040380;28;20033;-90
2022/01/16 09:19:53;;;;;;;0.50;0.50;;;;;;;8.53;65.92;102478.50;5040921;28;20090;-87
2022/01/16 09:22:19;;;;;;;0.40;0.40;;;;;;;8.55;66.20;102484.69;5057681;22;20042;-88
2022/01/16 09:25:13;;;;;;;3.55;1.55;;;;;;;8.60;65.85;102484.75;5012806;28;20056;-89
2022/01/16 09:27:40;;;;;;;6.50;5.10;;;;;;;8.49;66.76;102492.53;5002425;28;20073;-88
2022/01/16 09:30:08;;;;;;;0.50;0.50;;;;;;;8.48;66.74;102496.91;5006801;28;20477;-89
2022/01/16 09:32:36;;;;;;;0.30;0.30;;;;;;;8.52;66.13;102495.19;5008085;28;20437;-87
2022/01/16 09:35:04;;;;;;;0.40;0.40;;;;;;;8.52;66.13;102503.13;5006712;28;20029;-85
2022/01/16 09:37:30;;;;;;;5.07;2.30;;;;;;;8.46;66.66;102500.34;5011015;28;20030;-87
2022/01/16 09:39:58;;;;;;;2.40;2.22;;;;;;;8.41;66.44;102501.19;5004168;28;20041;-88
2022/01/16 09:42:24;;;;;;;1.95;1.85;;;;;;;8.45;66.36;102506.50;5003186;28;20022;-87
2022/01/16 09:44:53;;;;;;;3.42;1.38;;;;;;;8.48;66.27;102501.31;5005637;28;20042;-88
2022/01/16 09:47:20;;;;;;;0.20;0.20;;;;;;;8.48;66.41;102504.84;5005217;28;20030;-88
2022/01/16 09:49:49;;;;;;;0.35;0.35;;;;;;;8.47;66.50;102510.97;5012369;28;20052;-94
2022/01/16 09:52:17;;;;;;;0.20;0.20;;;;;;;8.42;67.22;102513.53;5009239;28;20042;-89
2022/01/16 09:54:43;;;;;;;0.55;0.55;;;;;;;8.48;67.22;102509.25;5010259;28;20041;-87
2022/01/16 09:57:12;;;;;;;2.25;2.13;;;;;;;8.42;66.79;102513.53;5002695;28;20060;-87
2022/01/16 09:59:38;;;;;;;21.25;3.15;;;;;;;8.42;66.83;102515.28;5001233;28;20500;-88
2022/01/16 10:02:06;;;;;;;0.38;0.38;;;;;;;8.41;67.33;102522.31;5008029;28;20034;-89
2022/01/16 10:07:14;;;;;;;0.22;0.22;;;;;;;8.47;67.13;102516.25;5054791;27;1307740;-87
2022/01/16 10:09:43;;;;;;;0.70;0.70;;;;;;;8.47;67.24;102531.22;5080335;28;20139;-87
2022/01/16 10:12:16;;;;;;;0.95;0.95;;;;;;;8.45;67.28;102539.09;5065989;28;20116;-87
2022/01/16 10:14:47;;;;;;;1.80;1.27;;;;;;;8.37;67.08;102539.00;5049622;28;20068;-87
2022/01/16 10:17:17;;;;;;;1.45;1.38;;;;;;;8.38;67.27;102532.81;5051362;28;20037;-87
2022/01/16 10:19:44;;;;;;;2.42;1.45;;;;;;;8.42;67.21;102532.03;5053543;28;20092;-88
2022/01/16 10:22:13;;;;;;;3.80;3.50;;;;;;;8.39;67.38;102539.88;5049777;28;20021;-87
2022/01/16 10:24:42;;;;;;;0.57;0.57;;;;;;;8.37;66.71;102549.56;5052958;28;20393;-85
2022/01/16 10:32:31;;;;;;;10.02;2.75;;;;;;;8.32;67.47;102552.97;5059876;27;20448;-83
2022/01/16 10:35:20;;;;;;;0.52;0.52;;;;;;;8.48;67.35;102548.88;5048231;28;20040;-86
2022/01/16 10:37:52;;;;;;;17.30;1.40;;;;;;;8.28;67.25;102549.38;5047083;28;20035;-85
2022/01/16 10:43:03;;;;;;;0.75;0.75;;;;;;;8.28;67.64;102541.47;5065328;27;20475;-86
2022/01/16 10:45:30;;;;;;;0.80;0.57;;;;;;;8.33;67.45;102555.63;5057519;28;20492;-87
2022/01/16 10:47:59;;;;;;;3.40;0.90;;;;;;;8.34;67.22;102561.81;5059357;28;20120;-86
2022/01/16 10:53:15;;;;;;;0.40;0.40;;;;;;;8.33;67.33;102545.06;5114002;27;20392;-88
2022/01/16 10:58:38;;;;;;;0.20;0.20;;;;;;;8.39;67.42;102549.56;5072827;27;20919;-87
2022/01/16 11:01:13;;;;;;;1.75;1.65;;;;;;;8.42;67.60;102553.16;5061331;28;20025;-86
2022/01/16 11:03:48;;;;;;;4.43;4.03;;;;;;;8.37;68.29;102552.19;5044336;28;20060;-87
2022/01/16 11:06:16;;;;;;;0.43;0.43;;;;;;;8.40;68.17;102552.22;5045426;28;20048;-86
2022/01/16 11:08:51;;;;;;;2.05;1.95;;;;;;;8.48;68.15;102541.81;5041603;28;20034;-90
2022/01/16 11:11:19;;;;;;;2.60;2.42;;;;;;;8.52;68.45;102556.88;5046614;28;20582;-91
2022/01/16 11:13:46;;;;;;;0.77;0.77;;;;;;;8.58;68.39;102553.41;5044714;28;20029;-91
2022/01/16 11:16:12;;;;;;;3.92;2.13;;;;;;;8.51;68.49;102543.63;5043721;28;20045;-87
2022/01/16 11:18:40;;;;;;;0.82;0.82;;;;;;;8.67;68.21;102544.75;5041506;28;20034;-87
2022/01/16 11:21:16;;;;;;;3.13;1.77;;;;;;;8.57;69.04;102546.34;5043061;28;20492;-93
2022/01/16 11:23:49;;;;;;;3.05;2.85;;;;;;;8.66;68.75;102542.97;5044178;28;20395;-91
2022/01/16 11:26:18;;;;;;;0.55;0.55;;;;;;;8.82;68.31;102538.81;5041273;28;20488;-92
2022/01/16 11:28:45;;;;;;;1.77;1.70;;;;;;;8.91;68.24;102549.53;5046849;28;20040;-91
2022/01/16 11:31:13;;;;;;;2.92;1.23;;;;;;;8.92;68.45;102543.34;5045460;28;20029;-87
2022/01/16 11:33:41;;;;;;;0.80;0.80;;;;;;;8.96;68.37;102547.84;5040495;28;20662;-87
2022/01/16 11:38:55;;;;;;;2.72;2.20;;;;;;;9.15;67.73;102556.91;5036596;28;20404;-89
2022/01/16 11:41:32;;;;;;;0.10;0.10;;;;;;;9.29;68.13;102541.19;5017441;28;20068;-89
2022/01/16 11:44:01;;;;;;;3.70;2.22;;;;;;;9.38;67.58;102551.00;4993020;28;20072;-88
2022/01/16 11:46:29;;;;;;;0.68;0.68;;;;;;;9.30;68.38;102557.97;5007454;28;20030;-86
2022/01/16 11:49:17;;;;;;;0.93;0.93;;;;;;;9.42;67.32;102554.59;5003550;28;20041;-91
2022/01/16 11:59:41;;;;;;;0.88;0.85;;;;;;;9.64;66.94;102538.09;5040775;27;1385770;-86
2022/01/16 12:04:54;;;;;;;0.15;0.15;;;;;;;9.69;66.64;102536.41;5148028;27;20395;-86
2022/01/16 12:10:04;;;;;;;1.40;1.30;;;;;;;9.68;66.42;102545.22;5066863;28;20491;-85
2022/01/16 12:18:01;;;;;;;3.83;1.40;;;;;;;9.62;66.41;102544.22;5111280;27;20396;-85
2022/01/16 12:20:37;;;;;;;2.90;2.50;;;;;;;9.78;66.14;102540.00;5108512;28;20046;-88
2022/01/16 12:23:08;;;;;;;1.48;1.27;;;;;;;9.74;66.16;102543.50;5109800;28;20032;-85
2022/01/16 12:25:40;;;;;;;0.30;0.30;;;;;;;9.83;66.02;102538.28;5112249;28;20028;-88
2022/01/16 12:31:03;;;;;;;3.85;2.67;;;;;;;9.92;65.90;102549.00;5063704;28;20436;-89
2022/01/16 12:33:48;;;;;;;0.60;0.60;;;;;;;9.97;65.63;102551.66;5062825;28;20025;-89
2022/01/16 12:36:18;;;;;;;0.10;0.10;;;;;;;9.93;65.88;102545.47;5053473;28;20534;-88
2022/01/16 12:44:18;;;;;;;1.02;1.02;;;;;;;9.89;65.66;102548.94;5088384;27;20393;-87
2022/01/16 12:46:47;;;;;;;1.27;1.27;;;;;;;9.89;66.07;102543.63;5070238;28;20142;-88
2022/01/16 12:51:57;;;;;;;0.28;0.28;;;;;;;9.82;65.57;102552.38;5083383;27;20415;-88
2022/01/16 12:54:27;;;;;;;0.40;0.40;;;;;;;9.73;66.32;102533.78;5055060;28;20025;-88
2022/01/16 12:56:57;;;;;;;0.30;0.30;;;;;;;9.87;65.83;102534.81;5061448;28;20021;-88
2022/01/16 12:59:26;;;;;;;0.28;0.25;;;;;;;9.84;65.23;102534.78;5062878;28;20029;-88
2022/01/16 13:01:54;;;;;;;1.75;1.65;;;;;;;9.93;65.12;102524.28;5064925;28;20036;-87